createdAt,value
2019-04-25T00:02:28.078Z,2.00
2019-04-25T00:05:01.289Z,2.00
2019-04-25T00:07:35.200Z,0.00
2019-04-25T00:10:08.525Z,2.20
2019-04-25T00:12:43.017Z,2.00
2019-04-25T00:15:16.117Z,3.00
2019-04-25T00:17:49.041Z,1.60
2019-04-25T00:20:21.589Z,2.40
2019-04-25T00:23:02.016Z,2.80
2019-04-25T00:25:41.533Z,1.60
2019-04-25T00:28:13.249Z,2.20
2019-04-25T00:30:49.079Z,2.40
2019-04-25T00:33:21.662Z,2.00
2019-04-25T00:35:54.249Z,1.00
2019-04-25T00:38:26.820Z,2.00
2019-04-25T00:40:59.276Z,1.80
2019-04-25T00:43:31.876Z,1.00
2019-04-25T00:46:04.226Z,2.00
2019-04-25T00:48:36.814Z,2.00
2019-04-25T00:51:09.498Z,1.00
2019-04-25T00:53:43.419Z,0.20
2019-04-25T00:56:16.210Z,1.60
2019-04-25T00:58:53.152Z,0.40
2019-04-25T01:01:46.481Z,1.00
2019-04-25T01:04:21.824Z,0.00
2019-04-25T01:06:54.521Z,1.00
2019-04-25T01:09:28.110Z,1.40
2019-04-25T01:12:02.218Z,1.80
2019-04-25T01:14:34.376Z,1.60
2019-04-25T01:17:07.178Z,0.80
2019-04-25T01:19:39.893Z,1.40
2019-04-25T01:22:14.397Z,1.00
2019-04-25T01:24:47.266Z,3.20
2019-04-25T01:27:19.734Z,1.80
2019-04-25T01:29:52.264Z,0.80
2019-04-25T01:32:26.241Z,11.00
2019-04-25T01:35:00.466Z,8.40
2019-04-25T01:37:34.170Z,11.20
2019-04-25T01:40:09.218Z,2.60
2019-04-25T01:42:43.842Z,3.20
2019-04-25T01:45:19.750Z,4.60
2019-04-25T01:47:54.084Z,3.00
2019-04-25T01:50:26.459Z,4.20
2019-04-25T01:52:59.218Z,2.20
2019-04-25T01:55:33.497Z,5.00
2019-04-25T01:58:06.273Z,4.40
2019-04-25T02:00:46.119Z,4.20
2019-04-25T02:03:18.913Z,2.60
2019-04-25T02:05:51.479Z,3.00
2019-04-25T02:08:24.288Z,2.60
2019-04-25T02:11:04.680Z,3.60
2019-04-25T02:13:37.334Z,3.00
2019-04-25T02:16:10.131Z,3.00
2019-04-25T02:18:43.593Z,4.00
2019-04-25T02:21:16.863Z,2.20
2019-04-25T02:23:49.587Z,2.80
2019-04-25T02:26:24.020Z,3.00
2019-04-25T02:28:57.224Z,2.40
2019-04-25T02:31:29.812Z,2.60
2019-04-25T02:34:04.660Z,4.00
2019-04-25T02:36:37.176Z,3.80
2019-04-25T02:39:14.846Z,3.40
2019-04-25T02:41:47.587Z,1.80
2019-04-25T02:44:20.380Z,2.00
2019-04-25T02:47:01.035Z,2.60
2019-04-25T02:49:41.969Z,3.00
2019-04-25T02:52:18.181Z,3.00
2019-04-25T02:54:50.091Z,3.00
2019-04-25T02:57:25.118Z,3.00
2019-04-25T02:59:58.411Z,3.00
2019-04-25T03:02:31.427Z,4.20
2019-04-25T03:05:07.889Z,3.80
2019-04-25T03:07:38.408Z,3.60
2019-04-25T03:10:14.825Z,3.40
2019-04-25T03:12:47.161Z,3.00
2019-04-25T03:15:19.879Z,3.40
2019-04-25T03:17:54.667Z,3.20
2019-04-25T03:20:31.156Z,4.00
2019-04-25T03:23:06.989Z,2.80
2019-04-25T03:25:39.557Z,2.00
2019-04-25T03:28:13.487Z,3.00
2019-04-25T03:30:46.014Z,2.20
2019-04-25T03:33:20.057Z,2.40
2019-04-25T03:35:53.390Z,3.40
2019-04-25T03:38:26.170Z,4.00
2019-04-25T03:40:58.866Z,4.00
2019-04-25T03:43:33.140Z,2.40
2019-04-25T03:46:06.999Z,3.80
2019-04-25T03:48:39.717Z,3.00
2019-04-25T03:51:13.795Z,2.60
2019-04-25T03:53:46.505Z,3.00
2019-04-25T03:56:19.249Z,2.60
2019-04-25T03:58:52.119Z,4.00
2019-04-25T04:01:25.611Z,2.40
2019-04-25T04:03:59.168Z,2.60
2019-04-25T04:06:31.649Z,2.60
2019-04-25T04:09:06.710Z,4.20
2019-04-25T04:11:40.040Z,2.60
2019-04-25T04:14:14.515Z,3.40
2019-04-25T04:17:05.342Z,3.00
2019-04-25T04:19:40.237Z,3.80
2019-04-25T04:22:20.354Z,3.00
2019-04-25T04:24:54.637Z,3.00
2019-04-25T04:27:27.563Z,3.00
2019-04-25T04:30:00.390Z,4.40
2019-04-25T04:32:34.016Z,2.80
2019-04-25T04:35:08.505Z,4.00
2019-04-25T04:37:43.068Z,3.40
2019-04-25T04:40:17.258Z,2.80
2019-04-25T04:42:49.989Z,2.20
2019-04-25T04:45:23.255Z,3.00
2019-04-25T04:47:56.217Z,2.80
2019-04-25T04:50:29.919Z,3.80
2019-04-25T04:53:03.903Z,4.00
2019-04-25T04:55:37.202Z,2.00
2019-04-25T04:58:10.372Z,2.60
2019-04-25T05:00:44.284Z,2.00
2019-04-25T05:03:21.515Z,2.60
2019-04-25T05:05:58.674Z,3.00
2019-04-25T05:08:33.833Z,1.80
2019-04-25T05:11:06.513Z,3.80
2019-04-25T05:13:39.634Z,5.00
2019-04-25T05:16:14.263Z,4.00
2019-04-25T05:18:46.522Z,4.00
2019-04-25T05:21:20.313Z,2.80
2019-04-25T05:23:54.281Z,4.00
2019-04-25T05:26:27.603Z,2.00
2019-04-25T05:29:00.544Z,3.00
2019-04-25T05:31:34.770Z,3.40
2019-04-25T05:34:07.522Z,3.20
2019-04-25T05:36:40.069Z,3.00
2019-04-25T05:39:15.276Z,3.00
2019-04-25T05:41:51.378Z,2.20
2019-04-25T05:44:26.369Z,3.60
2019-04-25T05:46:58.647Z,2.40
2019-04-25T05:49:31.406Z,1.00
2019-04-25T05:52:04.120Z,3.60
2019-04-25T05:54:36.992Z,2.80
2019-04-25T05:57:10.019Z,2.80
2019-04-25T05:59:43.669Z,3.00
2019-04-25T06:02:17.820Z,3.40
2019-04-25T06:04:50.770Z,3.00
2019-04-25T06:07:25.437Z,3.00
2019-04-25T06:10:05.160Z,4.20
2019-04-25T06:12:55.441Z,4.40
2019-04-25T06:15:29.994Z,3.00
2019-04-25T06:18:04.406Z,3.60
2019-04-25T06:20:38.778Z,3.00
2019-04-25T06:23:13.308Z,3.20
2019-04-25T06:25:46.086Z,2.00
2019-04-25T06:28:29.530Z,2.60
2019-04-25T06:31:04.064Z,3.20
2019-04-25T06:33:36.543Z,3.80
2019-04-25T06:36:09.423Z,2.00
2019-04-25T06:38:42.244Z,3.20
2019-04-25T06:41:14.729Z,4.00
2019-04-25T06:43:49.018Z,4.00
2019-04-25T06:46:26.798Z,3.60
2019-04-25T06:49:04.022Z,4.80
2019-04-25T06:51:54.697Z,2.00
2019-04-25T06:54:28.140Z,2.20
2019-04-25T06:57:01.137Z,2.40
2019-04-25T06:59:34.511Z,2.00
2019-04-25T07:02:07.120Z,3.00
2019-04-25T07:04:40.136Z,3.25
2019-04-25T07:07:14.713Z,4.00
2019-04-25T07:09:46.956Z,3.50
2019-04-25T07:12:20.176Z,3.00
2019-04-25T07:14:53.908Z,2.25
2019-04-25T07:17:28.285Z,3.50
2019-04-25T07:20:01.229Z,4.00
2019-04-25T07:22:35.018Z,4.50
2019-04-25T07:25:08.888Z,3.50
2019-04-25T07:28:03.296Z,5.75
2019-04-25T07:30:54.531Z,4.00
2019-04-25T07:33:29.546Z,5.25
2019-04-25T07:36:04.136Z,3.75
2019-04-25T07:38:37.609Z,3.25
2019-04-25T07:41:10.398Z,3.75
2019-04-25T07:43:43.322Z,3.75
2019-04-25T07:46:16.273Z,3.50
2019-04-25T07:48:48.914Z,4.75
2019-04-25T07:51:23.622Z,3.25
2019-04-25T07:53:56.110Z,3.75
2019-04-25T07:56:29.407Z,6.00
2019-04-25T07:59:03.765Z,2.25
2019-04-25T08:01:37.934Z,3.00
2019-04-25T08:04:11.101Z,2.50
2019-04-25T08:06:44.604Z,3.50
2019-04-25T08:09:17.513Z,3.25
2019-04-25T08:11:50.036Z,3.25
2019-04-25T08:14:24.279Z,2.25
2019-04-25T08:17:01.572Z,2.00
2019-04-25T08:19:37.126Z,4.25
2019-04-25T08:22:09.970Z,4.00
2019-04-25T08:24:44.235Z,2.25
2019-04-25T08:27:17.403Z,3.50
2019-04-25T08:29:50.117Z,4.25
2019-04-25T08:32:23.798Z,3.25
2019-04-25T08:34:56.314Z,1.75
2019-04-25T08:37:30.299Z,3.25
2019-04-25T08:40:03.998Z,3.00
2019-04-25T08:42:36.802Z,3.00
2019-04-25T08:45:10.815Z,4.00
2019-04-25T08:47:43.904Z,3.25
2019-04-25T08:50:29.471Z,4.00
2019-04-25T08:52:59.780Z,3.25
2019-04-25T08:55:53.913Z,3.25
2019-04-25T08:58:31.275Z,3.75
2019-04-25T09:01:05.769Z,4.00
2019-04-25T09:03:40.150Z,5.00
2019-04-25T09:06:14.196Z,6.00
2019-04-25T09:08:46.974Z,5.00
2019-04-25T09:11:19.606Z,2.50
2019-04-25T09:13:53.602Z,7.00
2019-04-25T09:16:25.630Z,8.50
2019-04-25T09:18:57.829Z,8.75
2019-04-25T09:21:30.246Z,8.00
2019-04-25T09:24:03.365Z,10.25
2019-04-25T09:26:36.916Z,13.75
2019-04-25T09:29:18.929Z,14.75
2019-04-25T09:31:44.930Z,12.75
2019-04-25T09:34:17.030Z,15.25
2019-04-25T09:36:49.158Z,15.00
2019-04-25T09:39:23.665Z,14.00
2019-04-25T09:41:55.967Z,15.75
2019-04-25T09:44:37.070Z,16.50
2019-04-25T09:47:13.550Z,16.25
2019-04-25T09:49:48.302Z,15.25
2019-04-25T09:52:21.890Z,13.50
2019-04-25T09:54:58.090Z,12.75
2019-04-25T09:57:34.378Z,10.25
2019-04-25T10:00:09.604Z,9.00
2019-04-25T10:02:42.285Z,7.75
2019-04-25T10:05:14.934Z,4.50
2019-04-25T10:07:48.911Z,3.25
2019-04-25T10:10:24.021Z,3.00
2019-04-25T10:12:56.226Z,3.25
2019-04-25T10:15:49.110Z,4.75
2019-04-25T10:18:21.347Z,3.00
2019-04-25T10:20:54.331Z,4.00
2019-04-25T10:23:26.938Z,4.00
2019-04-25T10:25:59.575Z,4.00
2019-04-25T10:28:33.485Z,4.75
2019-04-25T10:31:05.925Z,0.75
2019-04-25T10:33:38.713Z,4.00
2019-04-25T10:36:14.458Z,4.00
2019-04-25T10:39:01.463Z,3.50
2019-04-25T10:41:21.119Z,5.00
2019-04-25T10:43:54.667Z,0.75
2019-04-25T10:46:27.496Z,4.75
2019-04-25T10:48:59.931Z,4.00
2019-04-25T10:51:32.057Z,4.25
2019-04-25T10:54:04.430Z,4.00
2019-04-25T10:56:36.842Z,3.75
2019-04-25T10:59:09.054Z,3.75
2019-04-25T11:01:41.337Z,5.00
2019-04-25T11:04:14.839Z,5.25
2019-04-25T11:06:47.161Z,4.25
2019-04-25T11:09:24.172Z,5.25
2019-04-25T11:11:56.643Z,4.75
2019-04-25T11:14:31.717Z,4.25
2019-04-25T11:17:04.258Z,5.50
2019-04-25T11:19:37.307Z,4.25
2019-04-25T11:22:09.963Z,4.00
2019-04-25T11:24:42.440Z,3.75
2019-04-25T11:27:14.969Z,5.00
2019-04-25T11:29:47.322Z,4.50
2019-04-25T11:32:21.082Z,5.50
2019-04-25T11:34:53.818Z,3.00
2019-04-25T11:37:28.721Z,4.00
2019-04-25T11:40:05.046Z,3.50
2019-04-25T11:42:37.399Z,4.00
2019-04-25T11:45:12.017Z,5.75
2019-04-25T11:47:45.907Z,4.25
2019-04-25T11:50:18.262Z,4.00
2019-04-25T11:52:50.663Z,5.50
2019-04-25T11:55:23.907Z,5.75
2019-04-25T11:57:56.622Z,3.50
2019-04-25T12:00:30.537Z,4.75
2019-04-25T12:03:03.665Z,4.00
2019-04-25T12:05:36.215Z,4.25
2019-04-25T12:08:09.402Z,4.00
2019-04-25T12:10:43.123Z,5.25
2019-04-25T12:13:16.971Z,5.00
2019-04-25T12:15:49.836Z,2.25
2019-04-25T12:18:22.446Z,4.75
2019-04-25T12:20:55.421Z,4.50
2019-04-25T12:23:28.598Z,3.75
2019-04-25T12:26:01.788Z,2.75
2019-04-25T12:28:34.489Z,2.00
2019-04-25T12:31:07.074Z,4.00
2019-04-25T12:33:39.415Z,5.00
2019-04-25T12:36:11.734Z,3.75
2019-04-25T12:38:45.287Z,4.50
2019-04-25T12:41:17.942Z,4.50
2019-04-25T12:43:57.557Z,5.25
2019-04-25T12:46:46.047Z,5.00
2019-04-25T12:49:18.892Z,4.00
2019-04-25T12:51:51.357Z,5.00
2019-04-25T12:54:23.932Z,5.00
2019-04-25T12:56:57.218Z,4.75
2019-04-25T12:59:29.899Z,4.00
2019-04-25T13:02:04.354Z,1.50
2019-04-25T13:04:36.211Z,4.00
2019-04-25T13:07:09.692Z,4.25
2019-04-25T13:09:42.049Z,5.00
2019-04-25T13:12:15.879Z,6.00
2019-04-25T13:14:48.786Z,4.75
2019-04-25T13:17:21.255Z,5.00
2019-04-25T13:19:54.286Z,5.50
2019-04-25T13:22:26.824Z,5.00
2019-04-25T13:24:58.978Z,7.00
2019-04-25T13:27:35.628Z,5.00
2019-04-25T13:30:27.174Z,4.75
2019-04-25T13:33:16.619Z,4.50
2019-04-25T13:35:56.225Z,7.25
2019-04-25T13:38:28.750Z,6.50
2019-04-25T13:41:01.642Z,5.50
2019-04-25T13:43:34.503Z,1.00
2019-04-25T13:46:06.998Z,6.00
2019-04-25T13:48:39.229Z,6.00
2019-04-25T13:51:11.430Z,6.25
2019-04-25T13:53:43.661Z,6.75
2019-04-25T13:56:16.017Z,6.00
2019-04-25T13:58:48.143Z,7.00
2019-04-25T14:01:23.015Z,5.50
2019-04-25T14:03:55.775Z,5.00
2019-04-25T14:06:28.660Z,4.50
2019-04-25T14:09:00.882Z,5.75
2019-04-25T14:11:35.657Z,5.25
2019-04-25T14:14:08.288Z,6.00
2019-04-25T14:16:43.449Z,5.25
2019-04-25T14:19:33.555Z,7.00
2019-04-25T14:22:07.112Z,6.50
2019-04-25T14:24:39.914Z,3.75
2019-04-25T14:27:13.799Z,6.00
2019-04-25T14:29:46.311Z,6.00
2019-04-25T14:32:19.107Z,5.75
2019-04-25T14:34:51.345Z,5.75
2019-04-25T14:37:26.337Z,5.00
2019-04-25T14:39:57.377Z,7.25
2019-04-25T14:42:30.710Z,7.25
2019-04-25T14:45:03.487Z,5.25
2019-04-25T14:47:36.298Z,5.50
2019-04-25T14:50:08.636Z,4.00
2019-04-25T14:52:41.004Z,0.00
2019-04-25T14:55:14.596Z,5.75
2019-04-25T14:57:46.749Z,4.25
2019-04-25T15:00:26.788Z,5.50
2019-04-25T15:02:59.171Z,8.75
2019-04-25T15:05:31.362Z,16.00
2019-04-25T15:08:04.059Z,12.00
2019-04-25T15:10:36.933Z,12.00
2019-04-25T15:13:09.588Z,19.25
2019-04-25T15:15:42.011Z,20.50
2019-04-25T15:18:14.277Z,18.50
2019-04-25T15:20:46.485Z,12.50
2019-04-25T15:23:19.481Z,7.00
2019-04-25T15:25:51.753Z,3.50
2019-04-25T15:28:24.526Z,3.75
2019-04-25T15:30:57.103Z,3.75
2019-04-25T15:33:30.308Z,3.75
2019-04-25T15:36:06.900Z,7.50
2019-04-25T15:38:43.437Z,19.50
2019-04-25T15:41:33.165Z,22.50
2019-04-25T15:44:07.274Z,19.75
2019-04-25T15:46:43.168Z,14.50
2019-04-25T15:49:16.024Z,7.00
2019-04-25T15:51:48.632Z,3.00
2019-04-25T15:54:21.435Z,2.80
2019-04-25T15:56:53.726Z,4.60
2019-04-25T15:59:26.386Z,5.40
2019-04-25T16:02:07.996Z,5.20
2019-04-25T16:04:43.290Z,5.00
2019-04-25T16:07:14.206Z,5.20
2019-04-25T16:09:46.663Z,5.00
2019-04-25T16:12:19.221Z,5.00
2019-04-25T16:14:51.625Z,3.80
2019-04-25T16:17:24.781Z,3.60
2019-04-25T16:19:57.278Z,0.40
2019-04-25T16:22:30.255Z,5.40
2019-04-25T16:25:03.056Z,5.00
2019-04-25T16:27:36.531Z,3.60
2019-04-25T16:30:09.729Z,5.00
2019-04-25T16:32:42.673Z,4.00
2019-04-25T16:35:16.218Z,5.00
2019-04-25T16:37:49.002Z,5.00
2019-04-25T16:40:21.957Z,1.40
2019-04-25T16:42:55.195Z,4.40
2019-04-25T16:45:28.931Z,2.40
2019-04-25T16:48:02.370Z,5.20
2019-04-25T16:50:36.456Z,4.80
2019-04-25T16:53:09.314Z,4.20
2019-04-25T16:55:42.128Z,4.20
2019-04-25T16:59:58.188Z,5.00
2019-04-25T17:02:35.579Z,2.80
2019-04-25T17:05:08.388Z,5.80
2019-04-25T17:07:41.196Z,2.80
2019-04-25T17:10:13.934Z,4.60
2019-04-25T17:12:46.175Z,5.00
2019-04-25T17:15:20.072Z,3.20
2019-04-25T17:17:54.041Z,4.80
2019-04-25T17:20:27.821Z,1.80
2019-04-25T17:23:00.828Z,4.20
2019-04-25T17:25:33.283Z,4.60
2019-04-25T17:28:06.237Z,5.00
2019-04-25T17:30:40.283Z,5.20
2019-04-25T17:33:14.404Z,5.80
2019-04-25T17:36:03.215Z,3.20
2019-04-25T17:38:42.866Z,5.40
2019-04-25T17:41:15.548Z,3.80
2019-04-25T17:43:48.072Z,4.20
2019-04-25T17:46:22.024Z,4.80
2019-04-25T17:48:55.827Z,3.00
2019-04-25T17:51:30.181Z,4.60
2019-04-25T17:54:03.188Z,5.60
2019-04-25T17:56:36.371Z,3.00
2019-04-25T17:59:09.109Z,11.20
2019-04-25T18:01:42.190Z,8.60
2019-04-25T18:04:14.913Z,5.40
2019-04-25T18:06:47.241Z,20.00
2019-04-25T18:09:20.026Z,20.40
2019-04-25T18:11:52.374Z,8.00
2019-04-25T18:14:25.009Z,7.00
2019-04-25T18:16:57.570Z,17.20
2019-04-25T18:19:35.161Z,4.00
2019-04-25T18:22:09.401Z,6.40
2019-04-25T18:24:46.543Z,5.00
2019-04-25T18:27:20.240Z,11.40
2019-04-25T18:29:52.438Z,7.80
2019-04-25T18:32:26.390Z,6.00
2019-04-25T18:35:00.857Z,6.60
2019-04-25T18:37:47.836Z,3.00
2019-04-25T18:40:24.727Z,5.00
2019-04-25T18:43:00.943Z,5.60
2019-04-25T18:45:34.707Z,6.80
2019-04-25T18:48:07.212Z,10.40
2019-04-25T18:50:40.418Z,8.00
2019-04-25T18:53:16.525Z,5.60
2019-04-25T18:55:56.211Z,5.00
2019-04-25T18:58:46.182Z,5.20
2019-04-25T19:01:20.009Z,5.80
2019-04-25T19:03:56.648Z,8.60
2019-04-25T19:06:29.705Z,5.20
2019-04-25T19:09:02.077Z,2.80
2019-04-25T19:11:35.740Z,4.80
2019-04-25T19:14:08.458Z,5.20
2019-04-25T19:16:41.175Z,5.40
2019-04-25T19:19:13.581Z,1.20
2019-04-25T19:21:47.431Z,5.80
2019-04-25T19:24:20.447Z,3.20
2019-04-25T19:26:53.183Z,5.60
2019-04-25T19:29:26.352Z,5.00
2019-04-25T19:31:59.454Z,3.60
2019-04-25T19:34:32.403Z,3.60
2019-04-25T19:37:05.455Z,0.80
2019-04-25T19:39:39.484Z,3.60
2019-04-25T19:42:17.026Z,2.00
2019-04-25T19:44:49.403Z,1.40
2019-04-25T19:47:21.777Z,3.60
2019-04-25T19:49:54.114Z,3.40
2019-04-25T19:52:26.512Z,4.20
2019-04-25T19:54:58.898Z,3.20
2019-04-25T19:57:31.259Z,3.60
2019-04-25T20:00:03.711Z,3.60
2019-04-25T20:02:37.729Z,3.60
2019-04-25T20:05:14.917Z,3.00
2019-04-25T20:07:49.478Z,3.60
2019-04-25T20:10:38.405Z,2.80
2019-04-25T20:13:10.989Z,3.40
2019-04-25T20:15:44.580Z,4.20
2019-04-25T20:18:17.909Z,0.00
2019-04-25T20:20:50.250Z,3.40
2019-04-25T20:23:23.258Z,4.80
2019-04-25T20:25:57.338Z,2.40
2019-04-25T20:28:31.048Z,0.40
2019-04-25T20:31:03.386Z,3.40
2019-04-25T20:33:35.851Z,4.20
2019-04-25T20:36:17.656Z,0.00
2019-04-25T20:38:42.378Z,2.40
2019-04-25T20:41:14.653Z,4.20
2019-04-25T20:43:47.549Z,2.40
2019-04-25T20:46:20.327Z,3.80
2019-04-25T20:48:52.696Z,3.40
2019-04-25T20:51:25.055Z,3.20
2019-04-25T20:53:57.521Z,3.20
2019-04-25T20:56:29.970Z,4.80
2019-04-25T20:59:02.550Z,3.80
2019-04-25T21:01:35.018Z,3.40
2019-04-25T21:04:13.236Z,3.40
2019-04-25T21:06:42.654Z,5.40
2019-04-25T21:09:15.032Z,3.60
2019-04-25T21:11:47.681Z,3.00
2019-04-25T21:14:24.189Z,4.60
2019-04-25T21:17:01.089Z,4.20
2019-04-25T21:19:34.844Z,3.40
2019-04-25T21:22:07.301Z,4.20
2019-04-25T21:24:39.939Z,3.40
2019-04-25T21:27:12.413Z,4.20
2019-04-25T21:29:44.887Z,4.00
2019-04-25T21:32:18.711Z,1.80
2019-04-25T21:34:51.676Z,3.60
2019-04-25T21:37:25.058Z,4.20
2019-04-25T21:40:00.584Z,4.20
2019-04-25T21:42:54.090Z,2.40
2019-04-25T21:45:26.927Z,2.40
2019-04-25T21:48:00.794Z,3.20
2019-04-25T21:50:33.971Z,2.20
2019-04-25T21:53:06.844Z,1.60
2019-04-25T21:55:39.917Z,3.20
2019-04-25T21:58:13.007Z,3.40
2019-04-25T22:00:53.844Z,3.80
2019-04-25T22:03:28.574Z,2.60
2019-04-25T22:06:01.535Z,3.00
2019-04-25T22:08:33.958Z,3.20
2019-04-25T22:11:06.414Z,3.00
2019-04-25T22:13:39.059Z,2.20
2019-04-25T22:16:12.017Z,4.40
2019-04-25T22:18:44.999Z,3.20
2019-04-25T22:21:19.105Z,0.80
2019-04-25T22:24:03.509Z,3.20
2019-04-25T22:26:26.245Z,3.20
2019-04-25T22:28:59.377Z,3.60
2019-04-25T22:31:33.381Z,3.20
2019-04-25T22:34:10.221Z,7.40
2019-04-25T22:36:42.794Z,17.60
2019-04-25T22:39:15.790Z,6.40
2019-04-25T22:41:49.119Z,8.20
2019-04-25T22:44:23.241Z,29.20
2019-04-25T22:46:55.997Z,13.80
2019-04-25T22:49:28.356Z,6.40
2019-04-25T22:52:01.750Z,16.80
2019-04-25T22:54:35.871Z,7.60
2019-04-25T22:57:08.448Z,11.40
2019-04-25T22:59:41.092Z,15.40
2019-04-25T23:02:17.859Z,6.60
2019-04-25T23:05:04.768Z,10.40
2019-04-25T23:07:30.187Z,4.80
2019-04-25T23:10:06.219Z,5.20
2019-04-25T23:12:38.946Z,5.00
2019-04-25T23:15:11.204Z,9.00
2019-04-25T23:17:44.504Z,4.80
2019-04-25T23:20:18.005Z,4.40
2019-04-25T23:22:51.398Z,3.40
2019-04-25T23:25:25.647Z,6.40
2019-04-25T23:28:11.904Z,3.40
2019-04-25T23:31:02.317Z,4.60
2019-04-25T23:33:35.013Z,3.80
2019-04-25T23:36:09.017Z,5.60
2019-04-25T23:38:42.144Z,5.00
2019-04-25T23:41:15.686Z,6.80
2019-04-25T23:43:49.525Z,5.80
2019-04-25T23:46:22.403Z,2.80
2019-04-25T23:48:55.386Z,4.80
2019-04-25T23:51:27.699Z,7.20
2019-04-25T23:54:00.371Z,4.00
2019-04-25T23:56:32.806Z,5.20
2019-04-25T23:59:05.665Z,5.40
